Chem Star — V7FI3 — position and weather

sailwx.info

Track history (hours):
 
Tides and Currents Weather Stations Pressure Air Temp Water Temp Dewpoint Dewpoint Depression Visibility Wind Speed Wind Dir Waves Ship Positions

Chem Star

Last reported at 2018-Feb-12 17:11 UTC. Time now 2018-Feb-25 08:18 UTC.
Position S 22°48' E 153°18'.
Warning: this ship's position is 12 days out of date.

Length 117 m; draft 6.2 m.

Type: Tanker. MMSI: 538001945.

Date/timePositionNaut miles runAvg speedWind from/ knotsBaromVisibWave heightAir tempDewpointWater temp
2018-Feb-12 17:11S 22°48' E 153°18'1010.9
2018-Feb-12 16:13S 22°48' E 153°07'410.9
2018-Feb-12 15:49S 22°48' E 153°02'411.4
2018-Feb-12 15:28S 22°48' E 152°58'611.3
2018-Feb-12 14:56S 22°48' E 152°51'2411.0
2018-Feb-12 12:45S 22°56' E 152°26'611.7
2018-Feb-12 12:16S 22°53' E 152°21'311.6
2018-Feb-12 11:58S 22°51' E 152°18'511.5
2018-Feb-12 11:30S 22°48' E 152°13'2111.5
2018-Feb-12 09:42S 22°38' E 151°54'1910.8
2018-Feb-12 07:57S 22°28' E 151°36'2111.0
2018-Feb-12 06:03S 22°17' E 151°17'1511.4
2018-Feb-12 04:42S 22°08' E 151°03'411.8
2018-Feb-12 04:21S 22°05' E 150°60'412.2
2018-Feb-12 03:59S 22°02' E 150°56'1812.4
2018-Feb-12 02:32S 21°50' E 150°42'112.2
2018-Feb-12 02:30S 21°50' E 150°42'612.1
2018-Feb-12 02:00S 21°45' E 150°38'1711.8
2018-Feb-12 00:30S 21°32' E 150°25'  
Track history (hours):
 
Tides and Currents Weather Stations Pressure Air Temp Water Temp Dewpoint Dewpoint Depression Visibility Wind Speed Wind Dir Waves Ship Positions

Chem Star

Last reported at 2018-Feb-12 17:11 UTC. Time now 2018-Feb-25 08:18 UTC.
Position S 22°48' E 153°18'.
Warning: this ship's position is 12 days out of date.

Length 117 m; draft 6.2 m.

Type: Tanker. MMSI: 538001945.

Date/timePositionNaut miles runAvg speedWind from/ knotsBaromVisibWave heightAir tempDewpointWater temp
2018-Feb-12 17:11S 22°48' E 153°18'1010.9
2018-Feb-12 16:13S 22°48' E 153°07'410.9
2018-Feb-12 15:49S 22°48' E 153°02'411.4
2018-Feb-12 15:28S 22°48' E 152°58'611.3
2018-Feb-12 14:56S 22°48' E 152°51'2411.0
2018-Feb-12 12:45S 22°56' E 152°26'611.7
2018-Feb-12 12:16S 22°53' E 152°21'311.6
2018-Feb-12 11:58S 22°51' E 152°18'511.5
2018-Feb-12 11:30S 22°48' E 152°13'2111.5
2018-Feb-12 09:42S 22°38' E 151°54'1910.8
2018-Feb-12 07:57S 22°28' E 151°36'2111.0
2018-Feb-12 06:03S 22°17' E 151°17'1511.4
2018-Feb-12 04:42S 22°08' E 151°03'411.8
2018-Feb-12 04:21S 22°05' E 150°60'412.2
2018-Feb-12 03:59S 22°02' E 150°56'1812.4
2018-Feb-12 02:32S 21°50' E 150°42'112.2
2018-Feb-12 02:30S 21°50' E 150°42'612.1
2018-Feb-12 02:00S 21°45' E 150°38'1711.8
2018-Feb-12 00:30S 21°32' E 150°25'  

Dump ship's entire track history